sensor_id;sensor_type;location;lat;lon;timestamp;P1;durP1;ratioP1;P2;durP2;ratioP2
23410;SDS011;11878;51.774;7.220;2024-02-28T00:00:26;27.47;;;11.00;;
23410;SDS011;11878;51.774;7.220;2024-02-28T00:03:28;28.70;;;9.03;;
23410;SDS011;11878;51.774;7.220;2024-02-28T00:06:29;26.00;;;8.20;;
23410;SDS011;11878;51.774;7.220;2024-02-28T00:09:31;21.50;;;7.97;;
23410;SDS011;11878;51.774;7.220;2024-02-28T00:12:33;23.57;;;8.50;;
23410;SDS011;11878;51.774;7.220;2024-02-28T00:15:35;16.67;;;6.50;;
23410;SDS011;11878;51.774;7.220;2024-02-28T00:18:37;24.27;;;7.03;;
23410;SDS011;11878;51.774;7.220;2024-02-28T00:21:40;10.73;;;6.07;;
23410;SDS011;11878;51.774;7.220;2024-02-28T00:24:42;27.50;;;8.10;;
23410;SDS011;11878;51.774;7.220;2024-02-28T00:27:44;32.33;;;7.93;;
23410;SDS011;11878;51.774;7.220;2024-02-28T00:30:47;13.00;;;7.53;;
23410;SDS011;11878;51.774;7.220;2024-02-28T00:33:49;21.47;;;7.40;;
23410;SDS011;11878;51.774;7.220;2024-02-28T00:36:51;24.77;;;7.70;;
23410;SDS011;11878;51.774;7.220;2024-02-28T00:39:57;21.57;;;6.57;;
23410;SDS011;11878;51.774;7.220;2024-02-28T00:42:58;25.47;;;7.60;;
23410;SDS011;11878;51.774;7.220;2024-02-28T00:46:00;21.07;;;7.17;;
23410;SDS011;11878;51.774;7.220;2024-02-28T00:49:02;21.43;;;7.13;;
23410;SDS011;11878;51.774;7.220;2024-02-28T00:52:04;27.23;;;9.17;;
23410;SDS011;11878;51.774;7.220;2024-02-28T00:55:06;31.17;;;8.87;;
23410;SDS011;11878;51.774;7.220;2024-02-28T00:58:08;17.13;;;6.60;;
23410;SDS011;11878;51.774;7.220;2024-02-28T01:01:10;15.73;;;7.67;;
23410;SDS011;11878;51.774;7.220;2024-02-28T01:04:13;31.87;;;9.57;;
23410;SDS011;11878;51.774;7.220;2024-02-28T01:07:15;38.63;;;8.20;;
23410;SDS011;11878;51.774;7.220;2024-02-28T01:10:17;27.73;;;7.70;;
23410;SDS011;11878;51.774;7.220;2024-02-28T01:13:18;21.57;;;7.33;;
23410;SDS011;11878;51.774;7.220;2024-02-28T01:16:20;18.77;;;6.93;;
23410;SDS011;11878;51.774;7.220;2024-02-28T01:19:22;24.47;;;8.13;;
23410;SDS011;11878;51.774;7.220;2024-02-28T01:22:24;25.07;;;7.60;;
23410;SDS011;11878;51.774;7.220;2024-02-28T01:25:26;26.83;;;7.97;;
23410;SDS011;11878;51.774;7.220;2024-02-28T01:28:28;43.73;;;8.53;;
23410;SDS011;11878;51.774;7.220;2024-02-28T01:31:29;37.47;;;7.73;;
23410;SDS011;11878;51.774;7.220;2024-02-28T01:34:31;27.27;;;8.03;;
23410;SDS011;11878;51.774;7.220;2024-02-28T01:37:33;34.13;;;8.33;;
23410;SDS011;11878;51.774;7.220;2024-02-28T01:40:35;18.63;;;6.70;;
23410;SDS011;11878;51.774;7.220;2024-02-28T01:43:37;26.93;;;8.20;;
23410;SDS011;11878;51.774;7.220;2024-02-28T01:46:38;32.33;;;7.40;;
23410;SDS011;11878;51.774;7.220;2024-02-28T01:49:41;26.07;;;7.50;;
23410;SDS011;11878;51.774;7.220;2024-02-28T01:52:45;39.80;;;8.67;;
23410;SDS011;11878;51.774;7.220;2024-02-28T01:55:47;43.87;;;8.07;;
23410;SDS011;11878;51.774;7.220;2024-02-28T01:58:49;27.17;;;7.83;;
23410;SDS011;11878;51.774;7.220;2024-02-28T02:01:51;27.60;;;8.60;;
23410;SDS011;11878;51.774;7.220;2024-02-28T02:04:53;27.90;;;8.23;;
23410;SDS011;11878;51.774;7.220;2024-02-28T02:07:57;33.07;;;8.90;;
23410;SDS011;11878;51.774;7.220;2024-02-28T02:10:59;31.40;;;8.10;;
23410;SDS011;11878;51.774;7.220;2024-02-28T02:14:01;37.43;;;8.97;;
23410;SDS011;11878;51.774;7.220;2024-02-28T02:17:03;54.30;;;10.00;;
23410;SDS011;11878;51.774;7.220;2024-02-28T02:20:05;39.80;;;9.87;;
23410;SDS011;11878;51.774;7.220;2024-02-28T02:23:10;34.20;;;8.63;;
23410;SDS011;11878;51.774;7.220;2024-02-28T02:26:13;55.30;;;11.10;;
23410;SDS011;11878;51.774;7.220;2024-02-28T02:29:15;46.37;;;10.00;;
23410;SDS011;11878;51.774;7.220;2024-02-28T02:32:17;42.33;;;10.63;;
23410;SDS011;11878;51.774;7.220;2024-02-28T02:35:19;40.33;;;10.37;;
23410;SDS011;11878;51.774;7.220;2024-02-28T02:38:20;37.73;;;10.13;;
23410;SDS011;11878;51.774;7.220;2024-02-28T02:41:23;34.47;;;10.30;;
23410;SDS011;11878;51.774;7.220;2024-02-28T02:44:24;39.90;;;11.17;;
23410;SDS011;11878;51.774;7.220;2024-02-28T02:47:26;37.37;;;9.53;;
23410;SDS011;11878;51.774;7.220;2024-02-28T02:50:28;42.33;;;11.33;;
23410;SDS011;11878;51.774;7.220;2024-02-28T02:53:30;41.10;;;11.43;;
23410;SDS011;11878;51.774;7.220;2024-02-28T02:56:32;46.60;;;12.30;;
23410;SDS011;11878;51.774;7.220;2024-02-28T02:59:33;36.33;;;11.07;;
23410;SDS011;11878;51.774;7.220;2024-02-28T03:02:37;49.27;;;9.67;;
23410;SDS011;11878;51.774;7.220;2024-02-28T03:05:41;48.80;;;11.47;;
23410;SDS011;11878;51.774;7.220;2024-02-28T03:08:43;37.57;;;13.13;;
23410;SDS011;11878;51.774;7.220;2024-02-28T03:11:45;42.83;;;10.63;;
23410;SDS011;11878;51.774;7.220;2024-02-28T03:14:47;51.70;;;12.50;;
23410;SDS011;11878;51.774;7.220;2024-02-28T03:17:49;30.43;;;10.63;;
23410;SDS011;11878;51.774;7.220;2024-02-28T03:20:51;36.67;;;9.43;;
23410;SDS011;11878;51.774;7.220;2024-02-28T03:23:53;39.47;;;12.03;;
23410;SDS011;11878;51.774;7.220;2024-02-28T03:26:55;27.57;;;10.00;;
23410;SDS011;11878;51.774;7.220;2024-02-28T03:29:57;35.57;;;11.67;;
23410;SDS011;11878;51.774;7.220;2024-02-28T03:32:58;31.70;;;10.93;;
23410;SDS011;11878;51.774;7.220;2024-02-28T03:36:00;33.30;;;10.70;;
23410;SDS011;11878;51.774;7.220;2024-02-28T03:39:03;26.13;;;10.10;;
23410;SDS011;11878;51.774;7.220;2024-02-28T03:42:05;29.63;;;10.47;;
23410;SDS011;11878;51.774;7.220;2024-02-28T03:45:07;38.00;;;12.40;;
23410;SDS011;11878;51.774;7.220;2024-02-28T03:48:09;40.67;;;12.97;;
23410;SDS011;11878;51.774;7.220;2024-02-28T03:51:11;43.80;;;11.47;;
23410;SDS011;11878;51.774;7.220;2024-02-28T03:54:13;41.60;;;10.73;;
23410;SDS011;11878;51.774;7.220;2024-02-28T03:57:15;52.63;;;11.13;;
23410;SDS011;11878;51.774;7.220;2024-02-28T04:00:17;41.47;;;12.83;;
23410;SDS011;11878;51.774;7.220;2024-02-28T04:03:20;36.73;;;11.87;;
23410;SDS011;11878;51.774;7.220;2024-02-28T04:06:22;50.33;;;13.13;;
23410;SDS011;11878;51.774;7.220;2024-02-28T04:09:23;46.73;;;13.90;;
23410;SDS011;11878;51.774;7.220;2024-02-28T04:12:25;32.80;;;11.60;;
23410;SDS011;11878;51.774;7.220;2024-02-28T04:15:27;52.27;;;13.63;;
23410;SDS011;11878;51.774;7.220;2024-02-28T04:18:30;48.23;;;14.53;;
23410;SDS011;11878;51.774;7.220;2024-02-28T04:21:32;50.43;;;14.33;;
23410;SDS011;11878;51.774;7.220;2024-02-28T04:24:34;53.17;;;13.73;;
23410;SDS011;11878;51.774;7.220;2024-02-28T04:27:36;45.43;;;14.37;;
23410;SDS011;11878;51.774;7.220;2024-02-28T04:30:39;36.10;;;12.27;;
23410;SDS011;11878;51.774;7.220;2024-02-28T04:33:40;44.27;;;12.87;;
23410;SDS011;11878;51.774;7.220;2024-02-28T04:36:42;41.00;;;13.30;;
23410;SDS011;11878;51.774;7.220;2024-02-28T04:39:44;41.43;;;13.93;;
23410;SDS011;11878;51.774;7.220;2024-02-28T04:42:46;49.17;;;14.07;;
23410;SDS011;11878;51.774;7.220;2024-02-28T04:45:48;43.97;;;14.83;;
23410;SDS011;11878;51.774;7.220;2024-02-28T04:48:50;44.70;;;14.67;;
23410;SDS011;11878;51.774;7.220;2024-02-28T04:51:52;53.53;;;12.80;;
23410;SDS011;11878;51.774;7.220;2024-02-28T04:54:54;38.07;;;13.33;;
23410;SDS011;11878;51.774;7.220;2024-02-28T04:57:59;41.63;;;14.00;;
23410;SDS011;11878;51.774;7.220;2024-02-28T05:01:03;46.87;;;12.63;;
23410;SDS011;11878;51.774;7.220;2024-02-28T05:04:08;47.27;;;13.70;;
23410;SDS011;11878;51.774;7.220;2024-02-28T05:07:10;60.20;;;16.37;;
23410;SDS011;11878;51.774;7.220;2024-02-28T05:10:12;36.40;;;12.83;;
23410;SDS011;11878;51.774;7.220;2024-02-28T05:13:14;43.40;;;14.97;;
23410;SDS011;11878;51.774;7.220;2024-02-28T05:16:16;42.37;;;14.73;;
23410;SDS011;11878;51.774;7.220;2024-02-28T05:19:18;44.50;;;14.63;;
23410;SDS011;11878;51.774;7.220;2024-02-28T05:22:20;42.23;;;14.97;;
23410;SDS011;11878;51.774;7.220;2024-02-28T05:25:22;44.60;;;13.63;;
23410;SDS011;11878;51.774;7.220;2024-02-28T05:28:24;59.23;;;14.97;;
23410;SDS011;11878;51.774;7.220;2024-02-28T05:31:26;64.20;;;15.40;;
23410;SDS011;11878;51.774;7.220;2024-02-28T05:34:28;51.10;;;14.70;;
23410;SDS011;11878;51.774;7.220;2024-02-28T05:37:31;54.60;;;16.40;;
23410;SDS011;11878;51.774;7.220;2024-02-28T05:40:32;49.47;;;13.57;;
23410;SDS011;11878;51.774;7.220;2024-02-28T05:43:36;57.60;;;16.13;;
23410;SDS011;11878;51.774;7.220;2024-02-28T05:46:39;65.33;;;16.90;;
23410;SDS011;11878;51.774;7.220;2024-02-28T05:49:41;52.50;;;15.67;;
23410;SDS011;11878;51.774;7.220;2024-02-28T05:52:43;56.90;;;16.87;;
23410;SDS011;11878;51.774;7.220;2024-02-28T05:55:46;60.10;;;16.73;;
23410;SDS011;11878;51.774;7.220;2024-02-28T05:58:48;50.87;;;15.77;;
23410;SDS011;11878;51.774;7.220;2024-02-28T06:01:49;81.40;;;18.70;;
23410;SDS011;11878;51.774;7.220;2024-02-28T06:04:52;52.70;;;17.70;;
23410;SDS011;11878;51.774;7.220;2024-02-28T06:07:54;56.73;;;17.77;;
23410;SDS011;11878;51.774;7.220;2024-02-28T06:10:56;64.20;;;19.83;;
23410;SDS011;11878;51.774;7.220;2024-02-28T06:13:58;49.67;;;17.57;;
23410;SDS011;11878;51.774;7.220;2024-02-28T06:17:00;41.13;;;14.37;;
23410;SDS011;11878;51.774;7.220;2024-02-28T06:20:02;57.77;;;16.67;;
23410;SDS011;11878;51.774;7.220;2024-02-28T06:23:04;63.10;;;15.03;;
23410;SDS011;11878;51.774;7.220;2024-02-28T06:26:16;63.67;;;17.03;;
23410;SDS011;11878;51.774;7.220;2024-02-28T06:29:19;50.57;;;15.73;;
23410;SDS011;11878;51.774;7.220;2024-02-28T06:32:23;70.33;;;18.00;;
23410;SDS011;11878;51.774;7.220;2024-02-28T06:35:26;65.47;;;17.00;;
23410;SDS011;11878;51.774;7.220;2024-02-28T06:38:28;53.50;;;16.07;;
23410;SDS011;11878;51.774;7.220;2024-02-28T06:41:30;78.13;;;17.07;;
23410;SDS011;11878;51.774;7.220;2024-02-28T06:44:32;58.87;;;19.73;;
23410;SDS011;11878;51.774;7.220;2024-02-28T06:47:34;58.77;;;17.80;;
23410;SDS011;11878;51.774;7.220;2024-02-28T06:50:37;63.27;;;16.57;;
23410;SDS011;11878;51.774;7.220;2024-02-28T06:53:39;59.60;;;18.00;;
23410;SDS011;11878;51.774;7.220;2024-02-28T06:56:41;62.67;;;19.40;;
23410;SDS011;11878;51.774;7.220;2024-02-28T06:59:43;65.17;;;18.13;;
23410;SDS011;11878;51.774;7.220;2024-02-28T07:02:45;61.43;;;18.60;;
23410;SDS011;11878;51.774;7.220;2024-02-28T07:05:47;45.97;;;16.40;;
23410;SDS011;11878;51.774;7.220;2024-02-28T07:08:49;59.30;;;20.30;;
23410;SDS011;11878;51.774;7.220;2024-02-28T07:11:50;54.57;;;18.67;;
23410;SDS011;11878;51.774;7.220;2024-02-28T07:14:52;62.73;;;17.33;;
23410;SDS011;11878;51.774;7.220;2024-02-28T07:17:56;70.40;;;21.43;;
23410;SDS011;11878;51.774;7.220;2024-02-28T07:20:58;56.60;;;18.10;;
23410;SDS011;11878;51.774;7.220;2024-02-28T07:24:00;56.23;;;19.70;;
23410;SDS011;11878;51.774;7.220;2024-02-28T07:27:04;57.27;;;19.23;;
23410;SDS011;11878;51.774;7.220;2024-02-28T07:30:06;64.70;;;19.73;;
23410;SDS011;11878;51.774;7.220;2024-02-28T07:33:08;55.83;;;18.67;;
23410;SDS011;11878;51.774;7.220;2024-02-28T07:36:10;69.53;;;21.30;;
23410;SDS011;11878;51.774;7.220;2024-02-28T07:39:12;69.07;;;20.23;;
23410;SDS011;11878;51.774;7.220;2024-02-28T07:42:14;68.93;;;22.03;;
23410;SDS011;11878;51.774;7.220;2024-02-28T07:45:16;62.80;;;19.47;;
23410;SDS011;11878;51.774;7.220;2024-02-28T07:48:18;61.20;;;19.40;;
23410;SDS011;11878;51.774;7.220;2024-02-28T07:51:20;66.97;;;21.53;;
23410;SDS011;11878;51.774;7.220;2024-02-28T07:54:21;70.00;;;21.67;;
23410;SDS011;11878;51.774;7.220;2024-02-28T07:57:23;64.93;;;20.07;;
23410;SDS011;11878;51.774;7.220;2024-02-28T08:00:25;62.50;;;21.53;;
23410;SDS011;11878;51.774;7.220;2024-02-28T08:03:27;68.27;;;20.83;;
23410;SDS011;11878;51.774;7.220;2024-02-28T08:06:29;62.80;;;20.37;;
23410;SDS011;11878;51.774;7.220;2024-02-28T08:09:32;62.00;;;21.07;;
23410;SDS011;11878;51.774;7.220;2024-02-28T08:12:34;64.73;;;20.40;;
23410;SDS011;11878;51.774;7.220;2024-02-28T08:15:36;67.43;;;19.73;;
23410;SDS011;11878;51.774;7.220;2024-02-28T08:18:37;60.60;;;19.87;;
23410;SDS011;11878;51.774;7.220;2024-02-28T08:21:39;58.97;;;19.40;;
23410;SDS011;11878;51.774;7.220;2024-02-28T08:24:41;65.10;;;20.97;;
23410;SDS011;11878;51.774;7.220;2024-02-28T08:27:43;69.50;;;22.00;;
23410;SDS011;11878;51.774;7.220;2024-02-28T08:30:45;59.10;;;19.63;;
23410;SDS011;11878;51.774;7.220;2024-02-28T08:33:47;75.90;;;22.83;;
23410;SDS011;11878;51.774;7.220;2024-02-28T08:36:50;62.03;;;20.03;;
23410;SDS011;11878;51.774;7.220;2024-02-28T08:39:53;66.60;;;21.40;;
23410;SDS011;11878;51.774;7.220;2024-02-28T08:42:58;60.27;;;20.83;;
23410;SDS011;11878;51.774;7.220;2024-02-28T08:46:00;64.20;;;22.07;;
23410;SDS011;11878;51.774;7.220;2024-02-28T08:49:02;82.93;;;24.40;;
23410;SDS011;11878;51.774;7.220;2024-02-28T08:52:04;74.57;;;22.80;;
23410;SDS011;11878;51.774;7.220;2024-02-28T08:55:06;66.03;;;22.53;;
23410;SDS011;11878;51.774;7.220;2024-02-28T08:58:09;71.10;;;23.23;;
23410;SDS011;11878;51.774;7.220;2024-02-28T09:01:13;74.30;;;22.97;;
23410;SDS011;11878;51.774;7.220;2024-02-28T09:04:16;68.57;;;22.97;;
23410;SDS011;11878;51.774;7.220;2024-02-28T09:07:18;70.13;;;22.90;;
23410;SDS011;11878;51.774;7.220;2024-02-28T09:10:23;69.20;;;23.70;;
23410;SDS011;11878;51.774;7.220;2024-02-28T09:13:26;74.93;;;25.00;;
23410;SDS011;11878;51.774;7.220;2024-02-28T09:16:28;68.00;;;24.43;;
23410;SDS011;11878;51.774;7.220;2024-02-28T09:19:31;76.57;;;25.27;;
23410;SDS011;11878;51.774;7.220;2024-02-28T09:22:33;89.80;;;27.73;;
23410;SDS011;11878;51.774;7.220;2024-02-28T09:25:36;77.30;;;25.20;;
23410;SDS011;11878;51.774;7.220;2024-02-28T09:28:38;72.23;;;23.97;;
23410;SDS011;11878;51.774;7.220;2024-02-28T09:31:40;71.63;;;22.30;;
23410;SDS011;11878;51.774;7.220;2024-02-28T09:34:42;73.67;;;23.50;;
23410;SDS011;11878;51.774;7.220;2024-02-28T09:37:43;71.03;;;23.83;;
23410;SDS011;11878;51.774;7.220;2024-02-28T09:40:46;62.77;;;20.83;;
23410;SDS011;11878;51.774;7.220;2024-02-28T09:43:49;59.97;;;21.53;;
23410;SDS011;11878;51.774;7.220;2024-02-28T09:46:51;65.93;;;20.10;;
23410;SDS011;11878;51.774;7.220;2024-02-28T09:49:53;57.10;;;20.67;;
23410;SDS011;11878;51.774;7.220;2024-02-28T09:52:59;49.83;;;19.40;;
23410;SDS011;11878;51.774;7.220;2024-02-28T09:56:11;51.17;;;20.07;;
23410;SDS011;11878;51.774;7.220;2024-02-28T09:59:13;54.97;;;20.37;;
23410;SDS011;11878;51.774;7.220;2024-02-28T10:02:16;53.50;;;18.67;;
23410;SDS011;11878;51.774;7.220;2024-02-28T10:05:21;50.33;;;20.03;;
23410;SDS011;11878;51.774;7.220;2024-02-28T10:08:27;50.60;;;19.03;;
23410;SDS011;11878;51.774;7.220;2024-02-28T10:11:30;48.50;;;19.33;;
23410;SDS011;11878;51.774;7.220;2024-02-28T10:14:32;48.80;;;18.73;;
23410;SDS011;11878;51.774;7.220;2024-02-28T10:17:34;43.23;;;16.93;;
23410;SDS011;11878;51.774;7.220;2024-02-28T10:20:39;44.93;;;16.37;;
23410;SDS011;11878;51.774;7.220;2024-02-28T10:23:41;50.27;;;18.10;;
23410;SDS011;11878;51.774;7.220;2024-02-28T10:26:46;43.50;;;17.67;;
23410;SDS011;11878;51.774;7.220;2024-02-28T10:29:58;43.87;;;17.97;;
23410;SDS011;11878;51.774;7.220;2024-02-28T10:33:00;49.10;;;17.10;;
23410;SDS011;11878;51.774;7.220;2024-02-28T10:36:02;54.07;;;19.30;;
23410;SDS011;11878;51.774;7.220;2024-02-28T10:39:05;40.37;;;16.67;;
23410;SDS011;11878;51.774;7.220;2024-02-28T10:42:10;53.60;;;20.13;;
23410;SDS011;11878;51.774;7.220;2024-02-28T10:45:14;49.33;;;20.07;;
23410;SDS011;11878;51.774;7.220;2024-02-28T10:48:35;59.03;;;20.17;;
23410;SDS011;11878;51.774;7.220;2024-02-28T10:51:37;48.23;;;19.87;;
23410;SDS011;11878;51.774;7.220;2024-02-28T10:54:46;55.87;;;20.27;;
23410;SDS011;11878;51.774;7.220;2024-02-28T10:58:01;55.77;;;22.50;;
23410;SDS011;11878;51.774;7.220;2024-02-28T11:01:08;62.33;;;24.33;;
23410;SDS011;11878;51.774;7.220;2024-02-28T11:04:15;50.73;;;20.23;;
23410;SDS011;11878;51.774;7.220;2024-02-28T11:07:21;62.40;;;21.80;;
23410;SDS011;11878;51.774;7.220;2024-02-28T11:10:23;55.13;;;21.33;;
23410;SDS011;11878;51.774;7.220;2024-02-28T11:13:32;58.67;;;23.53;;
23410;SDS011;11878;51.774;7.220;2024-02-28T11:16:33;54.23;;;21.93;;
23410;SDS011;11878;51.774;7.220;2024-02-28T11:19:37;57.87;;;22.27;;
23410;SDS011;11878;51.774;7.220;2024-02-28T11:22:56;54.40;;;22.37;;
23410;SDS011;11878;51.774;7.220;2024-02-28T11:25:59;61.73;;;21.07;;
23410;SDS011;11878;51.774;7.220;2024-02-28T11:29:00;51.97;;;21.40;;
23410;SDS011;11878;51.774;7.220;2024-02-28T11:32:02;58.10;;;21.50;;
23410;SDS011;11878;51.774;7.220;2024-02-28T11:35:09;54.47;;;20.70;;
23410;SDS011;11878;51.774;7.220;2024-02-28T11:38:13;48.77;;;19.80;;
23410;SDS011;11878;51.774;7.220;2024-02-28T11:41:24;58.47;;;19.73;;
23410;SDS011;11878;51.774;7.220;2024-02-28T11:44:28;48.83;;;19.70;;
23410;SDS011;11878;51.774;7.220;2024-02-28T11:47:34;50.70;;;20.00;;
23410;SDS011;11878;51.774;7.220;2024-02-28T11:50:37;50.00;;;18.73;;
23410;SDS011;11878;51.774;7.220;2024-02-28T11:53:39;50.03;;;20.10;;
23410;SDS011;11878;51.774;7.220;2024-02-28T11:56:41;52.70;;;18.57;;
23410;SDS011;11878;51.774;7.220;2024-02-28T11:59:44;51.23;;;19.57;;
23410;SDS011;11878;51.774;7.220;2024-02-28T12:02:46;39.67;;;17.23;;
23410;SDS011;11878;51.774;7.220;2024-02-28T12:05:54;47.63;;;18.97;;
23410;SDS011;11878;51.774;7.220;2024-02-28T12:08:57;43.97;;;18.03;;
23410;SDS011;11878;51.774;7.220;2024-02-28T12:12:02;40.03;;;17.33;;
23410;SDS011;11878;51.774;7.220;2024-02-28T12:15:07;41.47;;;16.07;;
23410;SDS011;11878;51.774;7.220;2024-02-28T12:18:09;51.07;;;20.13;;
23410;SDS011;11878;51.774;7.220;2024-02-28T12:21:12;39.60;;;17.33;;
23410;SDS011;11878;51.774;7.220;2024-02-28T12:24:14;44.80;;;18.83;;
23410;SDS011;11878;51.774;7.220;2024-02-28T12:27:16;41.47;;;18.20;;
23410;SDS011;11878;51.774;7.220;2024-02-28T12:30:18;43.10;;;18.83;;
23410;SDS011;11878;51.774;7.220;2024-02-28T12:33:20;42.03;;;17.87;;
23410;SDS011;11878;51.774;7.220;2024-02-28T12:36:22;39.17;;;17.90;;
23410;SDS011;11878;51.774;7.220;2024-02-28T12:39:24;40.80;;;17.27;;
23410;SDS011;11878;51.774;7.220;2024-02-28T12:42:29;42.17;;;17.57;;
23410;SDS011;11878;51.774;7.220;2024-02-28T12:45:31;45.93;;;17.53;;
23410;SDS011;11878;51.774;7.220;2024-02-28T12:48:42;35.80;;;14.87;;
23410;SDS011;11878;51.774;7.220;2024-02-28T12:51:49;35.03;;;15.17;;
23410;SDS011;11878;51.774;7.220;2024-02-28T12:54:53;34.03;;;13.97;;
23410;SDS011;11878;51.774;7.220;2024-02-28T12:57:55;45.20;;;16.00;;
23410;SDS011;11878;51.774;7.220;2024-02-28T13:00:57;38.23;;;17.30;;
23410;SDS011;11878;51.774;7.220;2024-02-28T13:03:59;33.33;;;15.33;;
23410;SDS011;11878;51.774;7.220;2024-02-28T13:07:02;44.80;;;19.07;;
23410;SDS011;11878;51.774;7.220;2024-02-28T13:10:04;43.83;;;19.10;;
23410;SDS011;11878;51.774;7.220;2024-02-28T13:13:07;38.93;;;16.90;;
23410;SDS011;11878;51.774;7.220;2024-02-28T13:16:09;42.40;;;16.50;;
23410;SDS011;11878;51.774;7.220;2024-02-28T13:19:10;39.30;;;15.67;;
23410;SDS011;11878;51.774;7.220;2024-02-28T13:22:12;45.17;;;17.67;;
23410;SDS011;11878;51.774;7.220;2024-02-28T13:25:14;44.07;;;17.47;;
23410;SDS011;11878;51.774;7.220;2024-02-28T13:28:16;39.27;;;16.80;;
23410;SDS011;11878;51.774;7.220;2024-02-28T13:31:18;39.37;;;17.03;;
23410;SDS011;11878;51.774;7.220;2024-02-28T13:34:20;48.43;;;17.47;;
23410;SDS011;11878;51.774;7.220;2024-02-28T13:37:22;37.23;;;15.43;;
23410;SDS011;11878;51.774;7.220;2024-02-28T13:40:24;41.43;;;16.57;;
23410;SDS011;11878;51.774;7.220;2024-02-28T13:43:26;37.57;;;15.70;;
23410;SDS011;11878;51.774;7.220;2024-02-28T13:46:28;33.83;;;15.63;;
23410;SDS011;11878;51.774;7.220;2024-02-28T13:49:31;45.37;;;17.37;;
23410;SDS011;11878;51.774;7.220;2024-02-28T13:52:33;38.00;;;15.80;;
23410;SDS011;11878;51.774;7.220;2024-02-28T13:55:35;36.80;;;15.03;;
23410;SDS011;11878;51.774;7.220;2024-02-28T13:58:37;41.97;;;16.50;;
23410;SDS011;11878;51.774;7.220;2024-02-28T14:01:49;35.87;;;15.77;;
23410;SDS011;11878;51.774;7.220;2024-02-28T14:04:53;45.20;;;16.93;;
23410;SDS011;11878;51.774;7.220;2024-02-28T14:07:55;38.37;;;15.53;;
23410;SDS011;11878;51.774;7.220;2024-02-28T14:10:58;38.43;;;15.50;;
23410;SDS011;11878;51.774;7.220;2024-02-28T14:14:00;39.50;;;14.87;;
23410;SDS011;11878;51.774;7.220;2024-02-28T14:17:08;44.33;;;17.13;;
23410;SDS011;11878;51.774;7.220;2024-02-28T14:20:11;38.43;;;14.17;;
23410;SDS011;11878;51.774;7.220;2024-02-28T14:23:13;37.57;;;14.00;;
23410;SDS011;11878;51.774;7.220;2024-02-28T14:26:15;39.90;;;15.87;;
23410;SDS011;11878;51.774;7.220;2024-02-28T14:29:17;33.50;;;13.93;;
23410;SDS011;11878;51.774;7.220;2024-02-28T14:32:19;37.57;;;14.30;;
23410;SDS011;11878;51.774;7.220;2024-02-28T14:35:21;28.33;;;13.43;;
23410;SDS011;11878;51.774;7.220;2024-02-28T14:38:24;32.57;;;14.57;;
23410;SDS011;11878;51.774;7.220;2024-02-28T14:41:25;36.10;;;14.53;;
23410;SDS011;11878;51.774;7.220;2024-02-28T14:44:28;37.70;;;14.10;;
23410;SDS011;11878;51.774;7.220;2024-02-28T14:47:29;39.57;;;15.20;;
23410;SDS011;11878;51.774;7.220;2024-02-28T14:50:31;38.10;;;15.97;;
23410;SDS011;11878;51.774;7.220;2024-02-28T14:53:33;36.73;;;14.23;;
23410;SDS011;11878;51.774;7.220;2024-02-28T14:56:35;29.07;;;13.33;;
23410;SDS011;11878;51.774;7.220;2024-02-28T14:59:37;33.10;;;13.70;;
23410;SDS011;11878;51.774;7.220;2024-02-28T15:02:39;31.17;;;13.00;;
23410;SDS011;11878;51.774;7.220;2024-02-28T15:05:41;32.17;;;12.67;;
23410;SDS011;11878;51.774;7.220;2024-02-28T15:08:44;38.73;;;13.67;;
23410;SDS011;11878;51.774;7.220;2024-02-28T15:11:46;32.00;;;12.27;;
23410;SDS011;11878;51.774;7.220;2024-02-28T15:14:51;35.20;;;13.27;;
23410;SDS011;11878;51.774;7.220;2024-02-28T15:17:52;33.10;;;12.97;;
23410;SDS011;11878;51.774;7.220;2024-02-28T15:20:54;30.53;;;11.97;;
23410;SDS011;11878;51.774;7.220;2024-02-28T15:24:01;37.97;;;12.80;;
23410;SDS011;11878;51.774;7.220;2024-02-28T15:27:04;32.97;;;12.93;;
23410;SDS011;11878;51.774;7.220;2024-02-28T15:30:06;41.07;;;14.40;;
23410;SDS011;11878;51.774;7.220;2024-02-28T15:33:08;33.50;;;12.60;;
23410;SDS011;11878;51.774;7.220;2024-02-28T15:36:10;31.03;;;12.10;;
23410;SDS011;11878;51.774;7.220;2024-02-28T15:39:12;28.43;;;11.70;;
23410;SDS011;11878;51.774;7.220;2024-02-28T15:42:14;33.67;;;14.87;;
23410;SDS011;11878;51.774;7.220;2024-02-28T15:45:16;29.37;;;11.60;;
23410;SDS011;11878;51.774;7.220;2024-02-28T15:48:19;35.00;;;13.27;;
23410;SDS011;11878;51.774;7.220;2024-02-28T15:51:21;36.30;;;15.20;;
23410;SDS011;11878;51.774;7.220;2024-02-28T15:54:23;34.27;;;13.30;;
23410;SDS011;11878;51.774;7.220;2024-02-28T15:57:25;36.37;;;13.77;;
23410;SDS011;11878;51.774;7.220;2024-02-28T16:00:27;30.97;;;13.10;;
23410;SDS011;11878;51.774;7.220;2024-02-28T16:03:30;42.93;;;15.77;;
23410;SDS011;11878;51.774;7.220;2024-02-28T16:06:32;33.07;;;13.50;;
23410;SDS011;11878;51.774;7.220;2024-02-28T16:09:40;34.13;;;12.07;;
23410;SDS011;11878;51.774;7.220;2024-02-28T16:12:44;30.73;;;12.27;;
23410;SDS011;11878;51.774;7.220;2024-02-28T16:15:46;34.50;;;13.43;;
23410;SDS011;11878;51.774;7.220;2024-02-28T16:18:48;36.40;;;13.77;;
23410;SDS011;11878;51.774;7.220;2024-02-28T16:21:50;33.03;;;12.67;;
23410;SDS011;11878;51.774;7.220;2024-02-28T16:24:53;27.87;;;12.17;;
23410;SDS011;11878;51.774;7.220;2024-02-28T16:27:55;40.03;;;13.50;;
23410;SDS011;11878;51.774;7.220;2024-02-28T16:30:57;30.23;;;11.93;;
23410;SDS011;11878;51.774;7.220;2024-02-28T16:34:01;33.37;;;12.40;;
23410;SDS011;11878;51.774;7.220;2024-02-28T16:37:03;29.23;;;11.67;;
23410;SDS011;11878;51.774;7.220;2024-02-28T16:40:05;35.13;;;13.63;;
23410;SDS011;11878;51.774;7.220;2024-02-28T16:43:14;30.33;;;12.03;;
23410;SDS011;11878;51.774;7.220;2024-02-28T16:46:19;28.20;;;12.03;;
23410;SDS011;11878;51.774;7.220;2024-02-28T16:49:29;27.33;;;12.50;;
23410;SDS011;11878;51.774;7.220;2024-02-28T16:52:46;30.57;;;12.50;;
23410;SDS011;11878;51.774;7.220;2024-02-28T16:55:54;35.67;;;12.87;;
23410;SDS011;11878;51.774;7.220;2024-02-28T16:59:07;29.37;;;12.03;;
23410;SDS011;11878;51.774;7.220;2024-02-28T17:02:15;31.83;;;13.37;;
23410;SDS011;11878;51.774;7.220;2024-02-28T17:05:24;30.80;;;12.93;;
23410;SDS011;11878;51.774;7.220;2024-02-28T17:08:27;32.00;;;14.63;;
23410;SDS011;11878;51.774;7.220;2024-02-28T17:11:32;32.40;;;14.07;;
23410;SDS011;11878;51.774;7.220;2024-02-28T17:14:41;32.60;;;12.60;;
23410;SDS011;11878;51.774;7.220;2024-02-28T17:17:46;32.77;;;12.03;;
23410;SDS011;11878;51.774;7.220;2024-02-28T17:20:52;35.23;;;13.63;;
23410;SDS011;11878;51.774;7.220;2024-02-28T17:23:54;28.23;;;13.07;;
23410;SDS011;11878;51.774;7.220;2024-02-28T17:26:56;26.37;;;12.37;;
23410;SDS011;11878;51.774;7.220;2024-02-28T17:29:57;33.80;;;12.00;;
23410;SDS011;11878;51.774;7.220;2024-02-28T17:32:59;28.60;;;12.13;;
23410;SDS011;11878;51.774;7.220;2024-02-28T17:36:01;32.10;;;12.33;;
23410;SDS011;11878;51.774;7.220;2024-02-28T17:39:03;30.53;;;12.33;;
23410;SDS011;11878;51.774;7.220;2024-02-28T17:42:07;26.57;;;10.77;;
23410;SDS011;11878;51.774;7.220;2024-02-28T17:45:09;29.00;;;12.63;;
23410;SDS011;11878;51.774;7.220;2024-02-28T17:48:11;27.67;;;11.00;;
23410;SDS011;11878;51.774;7.220;2024-02-28T17:51:14;34.47;;;11.40;;